Rize — 9HA2781 — position and weather

sailwx.info

Track history (hours):
 
Tides and Currents Weather Stations Pressure Air Temp Water Temp Dewpoint Dewpoint Depression Visibility Wind Speed Wind Dir Waves Ship Positions

Rize

Last reported at 2015-Apr-01 04:31 UTC. Time now 2015-Apr-01 17:52 UTC.
Position N 38°14' W 014°02'.

Length 229 m; draft 12.5 m.

Type: Cargo ship. MMSI: 215677000.

Date/timePositionNaut miles runAvg speedWind from/ knotsBaromVisibWave heightAir tempDewpointWater temp
2015-Apr-01 04:31N 38°14' W 014°02'19 7.8
2015-Apr-01 02:05N 37°56' W 014°05'6 7.7
2015-Apr-01 01:20N 37°50' W 014°06'9 7.8
2015-Apr-01 00:11N 37°41' W 014°07'7 7.7
2015-Mar-31 23:13N 37°34' W 014°09'13 7.5
2015-Mar-31 21:33N 37°21' W 014°11'8 7.4
2015-Mar-31 20:31N 37°14' W 014°12'7 7.4
2015-Mar-31 19:33N 37°07' W 014°13'8 7.6
2015-Mar-31 18:31N 36°59' W 014°14'8 7.5
2015-Mar-31 17:25N 36°51' W 014°16'6 7.1
2015-Mar-31 16:33N 36°45' W 014°16'10 7.5
2015-Mar-31 15:16N 36°35' W 014°18'14 7.8
2015-Mar-31 13:26N 36°21' W 014°20'94 8.4
2015-Mar-31 02:16N 34°47' W 014°35'133 8.0
2015-Mar-30 09:32N 32°35' W 014°56'96 8.0
2015-Mar-29 21:32N 30°59' W 015°10'9 7.9
2015-Mar-29 20:26N 30°51' W 015°11'7 7.7
2015-Mar-29 19:33N 30°44' W 015°13'97 8.0
2015-Mar-29 07:31N 29°08' W 015°26'8 8.4
2015-Mar-29 06:33N 28°60' W 015°28'9 8.5
2015-Mar-29 05:33N 28°51' W 015°29'8 8.0
2015-Mar-29 04:34N 28°44' W 015°32'9 8.4
2015-Mar-29 03:33N 28°37' W 015°38'8 8.2
2015-Mar-29 02:33N 28°31' W 015°44'8 8.4
2015-Mar-29 01:33N 28°25' W 015°50'8 8.4
2015-Mar-29 00:33N 28°18' W 015°56'40 7.7
2015-Mar-28 19:26N 27°44' W 016°19'  
Track history (hours):
 
Tides and Currents Weather Stations Pressure Air Temp Water Temp Dewpoint Dewpoint Depression Visibility Wind Speed Wind Dir Waves Ship Positions

Rize

Last reported at 2015-Apr-01 04:31 UTC. Time now 2015-Apr-01 17:52 UTC.
Position N 38°14' W 014°02'.

Length 229 m; draft 12.5 m.

Type: Cargo ship. MMSI: 215677000.

Date/timePositionNaut miles runAvg speedWind from/ knotsBaromVisibWave heightAir tempDewpointWater temp
2015-Apr-01 04:31N 38°14' W 014°02'19 7.8
2015-Apr-01 02:05N 37°56' W 014°05'6 7.7
2015-Apr-01 01:20N 37°50' W 014°06'9 7.8
2015-Apr-01 00:11N 37°41' W 014°07'7 7.7
2015-Mar-31 23:13N 37°34' W 014°09'13 7.5
2015-Mar-31 21:33N 37°21' W 014°11'8 7.4
2015-Mar-31 20:31N 37°14' W 014°12'7 7.4
2015-Mar-31 19:33N 37°07' W 014°13'8 7.6
2015-Mar-31 18:31N 36°59' W 014°14'8 7.5
2015-Mar-31 17:25N 36°51' W 014°16'6 7.1
2015-Mar-31 16:33N 36°45' W 014°16'10 7.5
2015-Mar-31 15:16N 36°35' W 014°18'14 7.8
2015-Mar-31 13:26N 36°21' W 014°20'94 8.4
2015-Mar-31 02:16N 34°47' W 014°35'133 8.0
2015-Mar-30 09:32N 32°35' W 014°56'96 8.0
2015-Mar-29 21:32N 30°59' W 015°10'9 7.9
2015-Mar-29 20:26N 30°51' W 015°11'7 7.7
2015-Mar-29 19:33N 30°44' W 015°13'97 8.0
2015-Mar-29 07:31N 29°08' W 015°26'8 8.4
2015-Mar-29 06:33N 28°60' W 015°28'9 8.5
2015-Mar-29 05:33N 28°51' W 015°29'8 8.0
2015-Mar-29 04:34N 28°44' W 015°32'9 8.4
2015-Mar-29 03:33N 28°37' W 015°38'8 8.2
2015-Mar-29 02:33N 28°31' W 015°44'8 8.4
2015-Mar-29 01:33N 28°25' W 015°50'8 8.4
2015-Mar-29 00:33N 28°18' W 015°56'40 7.7
2015-Mar-28 19:26N 27°44' W 016°19'  

Dump ship's entire track history